sensor_id;sensor_type;location;lat;lon;timestamp;pressure;altitude;pressure_sealevel;temperature;humidity
59110;BME280;44895;47.438;18.978;2023-09-19T00:00:43;99516.94;;;21.59;100.00
59110;BME280;44895;47.438;18.978;2023-09-19T00:03:48;99525.22;;;21.59;100.00
59110;BME280;44895;47.438;18.978;2023-09-19T00:06:52;99524.34;;;21.55;100.00
59110;BME280;44895;47.438;18.978;2023-09-19T00:09:58;99523.53;;;21.50;100.00
59110;BME280;44895;47.438;18.978;2023-09-19T00:13:03;99525.06;;;21.44;100.00
59110;BME280;44895;47.438;18.978;2023-09-19T00:16:11;99525.44;;;21.43;100.00
59110;BME280;44895;47.438;18.978;2023-09-19T00:19:15;99528.94;;;21.36;100.00
59110;BME280;44895;47.438;18.978;2023-09-19T00:22:20;99526.13;;;21.32;100.00
59110;BME280;44895;47.438;18.978;2023-09-19T00:25:24;99528.91;;;21.32;100.00
59110;BME280;44895;47.438;18.978;2023-09-19T00:28:29;99526.88;;;21.26;100.00
59110;BME280;44895;47.438;18.978;2023-09-19T00:31:35;99524.47;;;21.24;100.00
59110;BME280;44895;47.438;18.978;2023-09-19T00:34:41;99523.66;;;21.20;100.00
59110;BME280;44895;47.438;18.978;2023-09-19T00:37:48;99520.09;;;21.20;100.00
59110;BME280;44895;47.438;18.978;2023-09-19T00:40:52;99529.56;;;21.18;100.00
59110;BME280;44895;47.438;18.978;2023-09-19T00:43:57;99522.44;;;21.17;100.00
59110;BME280;44895;47.438;18.978;2023-09-19T00:47:01;99516.53;;;21.15;100.00
59110;BME280;44895;47.438;18.978;2023-09-19T00:50:08;99520.84;;;21.13;100.00
59110;BME280;44895;47.438;18.978;2023-09-19T00:53:15;99516.47;;;21.12;100.00
59110;BME280;44895;47.438;18.978;2023-09-19T00:56:22;99521.19;;;21.11;100.00
59110;BME280;44895;47.438;18.978;2023-09-19T00:59:27;99509.72;;;21.06;100.00
59110;BME280;44895;47.438;18.978;2023-09-19T01:02:34;99519.94;;;21.05;100.00
59110;BME280;44895;47.438;18.978;2023-09-19T01:05:38;99516.00;;;21.06;100.00
59110;BME280;44895;47.438;18.978;2023-09-19T01:08:43;99526.31;;;21.09;100.00
59110;BME280;44895;47.438;18.978;2023-09-19T01:11:50;99517.19;;;21.05;100.00
59110;BME280;44895;47.438;18.978;2023-09-19T01:15:12;99518.03;;;21.09;100.00
59110;BME280;44895;47.438;18.978;2023-09-19T01:28:34;99511.25;;;21.03;100.00
59110;BME280;44895;47.438;18.978;2023-09-19T01:31:44;99510.50;;;21.06;100.00
59110;BME280;44895;47.438;18.978;2023-09-19T01:34:51;99497.84;;;21.01;100.00
59110;BME280;44895;47.438;18.978;2023-09-19T01:37:56;99500.22;;;21.03;100.00
59110;BME280;44895;47.438;18.978;2023-09-19T01:41:06;99499.41;;;20.99;100.00
59110;BME280;44895;47.438;18.978;2023-09-19T01:47:53;99498.50;;;20.88;100.00
59110;BME280;44895;47.438;18.978;2023-09-19T01:51:07;99506.34;;;20.85;100.00
59110;BME280;44895;47.438;18.978;2023-09-19T01:54:18;99502.75;;;20.81;100.00
59110;BME280;44895;47.438;18.978;2023-09-19T01:57:34;99508.63;;;20.76;100.00
59110;BME280;44895;47.438;18.978;2023-09-19T02:00:41;99514.88;;;20.73;100.00
59110;BME280;44895;47.438;18.978;2023-09-19T02:03:48;99504.91;;;20.68;100.00
59110;BME280;44895;47.438;18.978;2023-09-19T02:06:53;99504.09;;;20.64;100.00
59110;BME280;44895;47.438;18.978;2023-09-19T02:10:00;99502.16;;;20.65;100.00
59110;BME280;44895;47.438;18.978;2023-09-19T02:13:04;99504.91;;;20.65;100.00
59110;BME280;44895;47.438;18.978;2023-09-19T02:16:09;99502.53;;;20.67;100.00
59110;BME280;44895;47.438;18.978;2023-09-19T02:19:14;99505.31;;;20.67;100.00
59110;BME280;44895;47.438;18.978;2023-09-19T02:22:18;99495.03;;;20.64;100.00
59110;BME280;44895;47.438;18.978;2023-09-19T02:25:23;99497.69;;;20.57;100.00
59110;BME280;44895;47.438;18.978;2023-09-19T02:28:27;99495.31;;;20.55;100.00
59110;BME280;44895;47.438;18.978;2023-09-19T02:31:33;99495.22;;;20.48;100.00
59110;BME280;44895;47.438;18.978;2023-09-19T02:34:37;99497.66;;;20.53;100.00
59110;BME280;44895;47.438;18.978;2023-09-19T02:37:43;99503.56;;;20.51;100.00
59110;BME280;44895;47.438;18.978;2023-09-19T02:40:48;99501.13;;;20.46;100.00
59110;BME280;44895;47.438;18.978;2023-09-19T02:43:52;99507.81;;;20.45;100.00
59110;BME280;44895;47.438;18.978;2023-09-19T02:46:57;99502.19;;;20.38;100.00
59110;BME280;44895;47.438;18.978;2023-09-19T02:50:01;99505.81;;;20.42;100.00
59110;BME280;44895;47.438;18.978;2023-09-19T02:53:07;99504.94;;;20.38;100.00
59110;BME280;44895;47.438;18.978;2023-09-19T02:56:11;99499.75;;;20.33;100.00
59110;BME280;44895;47.438;18.978;2023-09-19T02:59:17;99489.00;;;20.24;100.00
59110;BME280;44895;47.438;18.978;2023-09-19T03:02:23;99478.78;;;20.25;100.00
59110;BME280;44895;47.438;18.978;2023-09-19T03:05:28;99494.91;;;20.23;100.00
59110;BME280;44895;47.438;18.978;2023-09-19T03:08:36;99506.25;;;20.17;100.00
59110;BME280;44895;47.438;18.978;2023-09-19T03:11:42;99508.69;;;20.23;100.00
59110;BME280;44895;47.438;18.978;2023-09-19T03:14:48;99517.00;;;20.26;100.00
59110;BME280;44895;47.438;18.978;2023-09-19T03:17:52;99511.53;;;20.30;100.00
59110;BME280;44895;47.438;18.978;2023-09-19T03:20:59;99497.75;;;20.30;100.00
59110;BME280;44895;47.438;18.978;2023-09-19T03:24:04;99498.19;;;20.32;100.00
59110;BME280;44895;47.438;18.978;2023-09-19T03:27:12;99500.91;;;20.28;100.00
59110;BME280;44895;47.438;18.978;2023-09-19T03:30:18;99506.50;;;20.35;100.00
59110;BME280;44895;47.438;18.978;2023-09-19T03:33:22;99498.94;;;20.29;100.00
59110;BME280;44895;47.438;18.978;2023-09-19T03:36:29;99515.84;;;20.27;100.00
59110;BME280;44895;47.438;18.978;2023-09-19T03:39:33;99511.53;;;20.30;100.00
59110;BME280;44895;47.438;18.978;2023-09-19T03:42:41;99504.06;;;20.30;100.00
59110;BME280;44895;47.438;18.978;2023-09-19T03:45:48;99511.88;;;20.25;100.00
59110;BME280;44895;47.438;18.978;2023-09-19T03:48:55;99506.75;;;20.27;100.00
59110;BME280;44895;47.438;18.978;2023-09-19T03:52:00;99512.31;;;20.30;100.00
59110;BME280;44895;47.438;18.978;2023-09-19T03:55:04;99516.72;;;20.35;100.00
59110;BME280;44895;47.438;18.978;2023-09-19T03:58:09;99511.59;;;20.33;100.00
59110;BME280;44895;47.438;18.978;2023-09-19T04:01:13;99518.31;;;20.36;100.00
59110;BME280;44895;47.438;18.978;2023-09-19T04:04:18;99521.50;;;20.38;100.00
59110;BME280;44895;47.438;18.978;2023-09-19T04:07:22;99514.81;;;20.39;100.00
59110;BME280;44895;47.438;18.978;2023-09-19T04:10:26;99513.94;;;20.31;100.00
59110;BME280;44895;47.438;18.978;2023-09-19T04:13:31;99518.97;;;20.26;100.00
59110;BME280;44895;47.438;18.978;2023-09-19T04:16:35;99520.97;;;20.29;100.00
59110;BME280;44895;47.438;18.978;2023-09-19T04:19:39;99523.34;;;20.30;100.00
59110;BME280;44895;47.438;18.978;2023-09-19T04:22:45;99532.00;;;20.29;100.00
59110;BME280;44895;47.438;18.978;2023-09-19T04:25:49;99535.19;;;20.31;100.00
59110;BME280;44895;47.438;18.978;2023-09-19T04:28:54;99546.63;;;20.33;100.00
59110;BME280;44895;47.438;18.978;2023-09-19T04:32:00;99546.22;;;20.31;100.00
59110;BME280;44895;47.438;18.978;2023-09-19T04:35:04;99554.50;;;20.31;100.00
59110;BME280;44895;47.438;18.978;2023-09-19T04:38:10;99555.28;;;20.31;100.00
59110;BME280;44895;47.438;18.978;2023-09-19T04:41:14;99563.09;;;20.26;100.00
59110;BME280;44895;47.438;18.978;2023-09-19T04:44:20;99573.38;;;20.29;100.00
59110;BME280;44895;47.438;18.978;2023-09-19T04:47:24;99571.69;;;20.20;100.00
59110;BME280;44895;47.438;18.978;2023-09-19T04:50:28;99573.94;;;20.15;100.00
59110;BME280;44895;47.438;18.978;2023-09-19T04:53:33;99569.97;;;20.12;100.00
59110;BME280;44895;47.438;18.978;2023-09-19T04:56:37;99570.59;;;20.02;100.00
59110;BME280;44895;47.438;18.978;2023-09-19T04:59:44;99577.72;;;20.03;100.00
59110;BME280;44895;47.438;18.978;2023-09-19T05:02:51;99582.31;;;19.95;100.00
59110;BME280;44895;47.438;18.978;2023-09-19T05:05:56;99578.44;;;20.00;100.00
59110;BME280;44895;47.438;18.978;2023-09-19T05:09:00;99590.91;;;19.90;100.00
59110;BME280;44895;47.438;18.978;2023-09-19T05:12:04;99596.38;;;19.67;100.00
59110;BME280;44895;47.438;18.978;2023-09-19T05:15:08;99594.72;;;19.62;100.00
59110;BME280;44895;47.438;18.978;2023-09-19T05:18:12;99607.81;;;19.69;100.00
59110;BME280;44895;47.438;18.978;2023-09-19T05:21:16;99604.56;;;19.63;100.00
59110;BME280;44895;47.438;18.978;2023-09-19T05:24:21;99620.25;;;19.59;100.00
59110;BME280;44895;47.438;18.978;2023-09-19T05:27:27;99627.66;;;19.55;100.00
59110;BME280;44895;47.438;18.978;2023-09-19T05:30:32;99614.59;;;19.52;100.00
59110;BME280;44895;47.438;18.978;2023-09-19T05:33:35;99616.69;;;19.59;100.00
59110;BME280;44895;47.438;18.978;2023-09-19T05:36:40;99621.22;;;19.70;100.00
59110;BME280;44895;47.438;18.978;2023-09-19T05:39:45;99614.66;;;19.55;100.00
59110;BME280;44895;47.438;18.978;2023-09-19T05:42:49;99606.44;;;19.79;100.00
59110;BME280;44895;47.438;18.978;2023-09-19T05:45:54;99618.69;;;20.04;100.00
59110;BME280;44895;47.438;18.978;2023-09-19T05:49:00;99617.78;;;20.24;100.00
59110;BME280;44895;47.438;18.978;2023-09-19T05:52:08;99626.69;;;20.13;100.00
59110;BME280;44895;47.438;18.978;2023-09-19T05:55:12;99625.97;;;19.93;100.00
59110;BME280;44895;47.438;18.978;2023-09-19T05:58:16;99626.06;;;19.77;100.00
59110;BME280;44895;47.438;18.978;2023-09-19T06:01:21;99629.41;;;19.67;100.00
59110;BME280;44895;47.438;18.978;2023-09-19T06:04:25;99624.41;;;19.72;100.00
59110;BME280;44895;47.438;18.978;2023-09-19T06:07:29;99620.97;;;19.56;100.00
59110;BME280;44895;47.438;18.978;2023-09-19T06:10:39;99628.94;;;19.61;100.00
59110;BME280;44895;47.438;18.978;2023-09-19T06:13:44;99633.53;;;19.53;100.00
59110;BME280;44895;47.438;18.978;2023-09-19T06:16:50;99635.41;;;19.49;100.00
59110;BME280;44895;47.438;18.978;2023-09-19T06:19:54;99633.97;;;19.36;100.00
59110;BME280;44895;47.438;18.978;2023-09-19T06:22:59;99637.88;;;19.35;100.00
59110;BME280;44895;47.438;18.978;2023-09-19T06:26:06;99639.78;;;19.11;100.00
59110;BME280;44895;47.438;18.978;2023-09-19T06:29:10;99641.97;;;19.02;100.00
59110;BME280;44895;47.438;18.978;2023-09-19T06:32:15;99641.97;;;19.02;100.00
59110;BME280;44895;47.438;18.978;2023-09-19T06:35:19;99653.41;;;19.04;100.00
59110;BME280;44895;47.438;18.978;2023-09-19T06:38:22;99646.22;;;18.99;100.00
59110;BME280;44895;47.438;18.978;2023-09-19T06:41:27;99654.88;;;18.82;100.00
59110;BME280;44895;47.438;18.978;2023-09-19T06:44:31;99652.31;;;18.73;100.00
59110;BME280;44895;47.438;18.978;2023-09-19T06:47:35;99663.22;;;18.69;100.00
59110;BME280;44895;47.438;18.978;2023-09-19T06:50:39;99669.19;;;18.71;100.00
59110;BME280;44895;47.438;18.978;2023-09-19T06:53:45;99673.09;;;18.54;100.00
59110;BME280;44895;47.438;18.978;2023-09-19T06:56:49;99691.94;;;18.52;100.00
59110;BME280;44895;47.438;18.978;2023-09-19T06:59:53;99697.78;;;18.35;100.00
59110;BME280;44895;47.438;18.978;2023-09-19T07:03:01;99702.22;;;18.39;100.00
59110;BME280;44895;47.438;18.978;2023-09-19T07:06:07;99711.34;;;18.44;100.00
59110;BME280;44895;47.438;18.978;2023-09-19T07:09:12;99713.38;;;18.15;100.00
59110;BME280;44895;47.438;18.978;2023-09-19T07:12:16;99722.16;;;18.36;100.00
59110;BME280;44895;47.438;18.978;2023-09-19T07:15:21;99722.59;;;18.22;100.00
59110;BME280;44895;47.438;18.978;2023-09-19T07:18:28;99732.00;;;18.21;100.00
59110;BME280;44895;47.438;18.978;2023-09-19T07:21:33;99726.69;;;18.29;100.00
59110;BME280;44895;47.438;18.978;2023-09-19T07:24:39;99724.22;;;18.23;100.00
59110;BME280;44895;47.438;18.978;2023-09-19T07:27:43;99718.72;;;18.23;100.00
59110;BME280;44895;47.438;18.978;2023-09-19T07:30:47;99727.13;;;18.15;100.00
59110;BME280;44895;47.438;18.978;2023-09-19T07:33:52;99725.28;;;18.03;100.00
59110;BME280;44895;47.438;18.978;2023-09-19T07:36:55;99726.88;;;18.04;100.00
59110;BME280;44895;47.438;18.978;2023-09-19T07:40:00;99729.66;;;17.91;100.00
59110;BME280;44895;47.438;18.978;2023-09-19T07:43:05;99740.25;;;18.05;100.00
59110;BME280;44895;47.438;18.978;2023-09-19T07:46:10;99737.13;;;18.07;100.00
59110;BME280;44895;47.438;18.978;2023-09-19T07:49:15;99735.03;;;17.88;100.00
59110;BME280;44895;47.438;18.978;2023-09-19T07:52:21;99755.78;;;17.85;100.00
59110;BME280;44895;47.438;18.978;2023-09-19T07:55:27;99760.97;;;18.03;100.00
59110;BME280;44895;47.438;18.978;2023-09-19T07:58:31;99767.66;;;18.18;100.00
59110;BME280;44895;47.438;18.978;2023-09-19T08:01:35;99765.38;;;18.36;100.00
59110;BME280;44895;47.438;18.978;2023-09-19T08:04:39;99777.53;;;18.51;100.00
59110;BME280;44895;47.438;18.978;2023-09-19T08:07:45;99783.44;;;18.53;100.00
59110;BME280;44895;47.438;18.978;2023-09-19T08:10:56;99795.69;;;18.55;100.00
59110;BME280;44895;47.438;18.978;2023-09-19T08:14:00;99786.56;;;18.67;100.00
59110;BME280;44895;47.438;18.978;2023-09-19T08:17:04;99794.72;;;18.64;100.00
59110;BME280;44895;47.438;18.978;2023-09-19T08:20:10;99800.22;;;18.48;100.00
59110;BME280;44895;47.438;18.978;2023-09-19T08:23:21;99810.69;;;18.58;100.00
59110;BME280;44895;47.438;18.978;2023-09-19T08:26:25;99812.72;;;18.61;100.00
59110;BME280;44895;47.438;18.978;2023-09-19T08:29:29;99808.09;;;18.49;100.00
59110;BME280;44895;47.438;18.978;2023-09-19T08:32:33;99812.28;;;18.59;100.00
59110;BME280;44895;47.438;18.978;2023-09-19T08:35:37;99824.34;;;18.54;100.00
59110;BME280;44895;47.438;18.978;2023-09-19T08:38:43;99835.00;;;18.56;100.00
59110;BME280;44895;47.438;18.978;2023-09-19T08:41:47;99839.94;;;18.50;100.00
59110;BME280;44895;47.438;18.978;2023-09-19T08:44:51;99856.34;;;18.47;100.00
59110;BME280;44895;47.438;18.978;2023-09-19T08:51:46;99871.69;;;18.48;100.00
59110;BME280;44895;47.438;18.978;2023-09-19T08:54:52;99878.72;;;18.61;100.00
59110;BME280;44895;47.438;18.978;2023-09-19T08:58:03;99887.44;;;18.79;100.00
59110;BME280;44895;47.438;18.978;2023-09-19T09:01:07;99876.69;;;18.74;100.00
59110;BME280;44895;47.438;18.978;2023-09-19T09:04:12;99871.06;;;18.54;100.00
59110;BME280;44895;47.438;18.978;2023-09-19T09:07:19;99859.59;;;18.65;100.00
59110;BME280;44895;47.438;18.978;2023-09-19T09:10:25;99849.38;;;18.81;100.00
59110;BME280;44895;47.438;18.978;2023-09-19T09:13:30;99831.78;;;18.86;100.00
59110;BME280;44895;47.438;18.978;2023-09-19T09:16:34;99813.53;;;19.10;100.00
59110;BME280;44895;47.438;18.978;2023-09-19T09:19:38;99803.00;;;19.31;100.00
59110;BME280;44895;47.438;18.978;2023-09-19T09:22:53;99793.38;;;19.61;100.00
59110;BME280;44895;47.438;18.978;2023-09-19T09:25:58;99783.78;;;19.90;100.00
59110;BME280;44895;47.438;18.978;2023-09-19T09:29:06;99789.63;;;19.88;100.00
59110;BME280;44895;47.438;18.978;2023-09-19T09:32:21;99781.81;;;19.91;100.00
59110;BME280;44895;47.438;18.978;2023-09-19T09:35:25;99792.31;;;19.65;100.00
59110;BME280;44895;47.438;18.978;2023-09-19T09:38:44;99796.81;;;19.74;100.00
59110;BME280;44895;47.438;18.978;2023-09-19T09:41:49;99825.63;;;19.80;100.00
59110;BME280;44895;47.438;18.978;2023-09-19T09:48:24;99845.00;;;19.64;100.00
59110;BME280;44895;47.438;18.978;2023-09-19T09:51:35;99829.88;;;19.93;100.00
59110;BME280;44895;47.438;18.978;2023-09-19T09:54:59;99829.31;;;19.84;100.00
59110;BME280;44895;47.438;18.978;2023-09-19T09:58:17;99826.38;;;19.96;100.00
59110;BME280;44895;47.438;18.978;2023-09-19T10:01:46;99823.41;;;20.48;100.00
59110;BME280;44895;47.438;18.978;2023-09-19T10:04:52;99827.84;;;20.99;100.00
59110;BME280;44895;47.438;18.978;2023-09-19T10:08:10;99815.53;;;20.93;100.00
59110;BME280;44895;47.438;18.978;2023-09-19T10:11:16;99816.50;;;21.08;100.00
59110;BME280;44895;47.438;18.978;2023-09-19T10:14:24;99825.34;;;20.90;100.00
59110;BME280;44895;47.438;18.978;2023-09-19T10:17:29;99830.97;;;20.74;100.00
59110;BME280;44895;47.438;18.978;2023-09-19T10:20:36;99825.19;;;21.06;100.00
59110;BME280;44895;47.438;18.978;2023-09-19T10:23:42;99827.09;;;21.02;100.00
59110;BME280;44895;47.438;18.978;2023-09-19T10:26:49;99843.28;;;21.04;100.00
59110;BME280;44895;47.438;18.978;2023-09-19T10:29:55;99840.13;;;20.78;100.00
59110;BME280;44895;47.438;18.978;2023-09-19T10:33:02;99837.16;;;20.91;100.00
59110;BME280;44895;47.438;18.978;2023-09-19T10:36:08;99833.50;;;20.83;100.00
59110;BME280;44895;47.438;18.978;2023-09-19T10:39:15;99844.44;;;21.02;100.00
59110;BME280;44895;47.438;18.978;2023-09-19T10:42:24;99850.13;;;21.13;100.00
59110;BME280;44895;47.438;18.978;2023-09-19T10:45:34;99851.44;;;20.96;100.00
59110;BME280;44895;47.438;18.978;2023-09-19T10:48:40;99854.09;;;20.89;100.00
59110;BME280;44895;47.438;18.978;2023-09-19T10:51:49;99856.47;;;20.91;100.00
59110;BME280;44895;47.438;18.978;2023-09-19T10:54:57;99857.06;;;21.04;100.00
59110;BME280;44895;47.438;18.978;2023-09-19T10:58:03;99862.84;;;20.95;100.00
59110;BME280;44895;47.438;18.978;2023-09-19T11:01:18;99867.44;;;21.10;100.00
59110;BME280;44895;47.438;18.978;2023-09-19T11:07:57;99873.13;;;22.09;100.00
59110;BME280;44895;47.438;18.978;2023-09-19T11:11:39;99884.09;;;22.32;100.00
59110;BME280;44895;47.438;18.978;2023-09-19T11:14:44;99881.88;;;22.90;100.00
59110;BME280;44895;47.438;18.978;2023-09-19T11:17:48;99882.13;;;22.70;100.00
59110;BME280;44895;47.438;18.978;2023-09-19T11:24:37;99872.44;;;22.94;100.00
59110;BME280;44895;47.438;18.978;2023-09-19T11:31:44;99868.66;;;22.31;100.00
59110;BME280;44895;47.438;18.978;2023-09-19T11:34:48;99870.59;;;22.64;100.00
59110;BME280;44895;47.438;18.978;2023-09-19T11:47:34;99856.06;;;22.75;100.00
59110;BME280;44895;47.438;18.978;2023-09-19T11:50:45;99853.34;;;23.34;100.00
59110;BME280;44895;47.438;18.978;2023-09-19T11:53:52;99856.22;;;23.49;100.00
59110;BME280;44895;47.438;18.978;2023-09-19T11:56:56;99853.28;;;23.20;100.00
59110;BME280;44895;47.438;18.978;2023-09-19T12:00:01;99843.88;;;22.83;100.00
59110;BME280;44895;47.438;18.978;2023-09-19T12:03:16;99845.72;;;22.68;100.00
59110;BME280;44895;47.438;18.978;2023-09-19T12:06:24;99839.91;;;22.80;100.00
59110;BME280;44895;47.438;18.978;2023-09-19T12:09:28;99845.72;;;23.17;100.00
59110;BME280;44895;47.438;18.978;2023-09-19T12:12:32;99840.44;;;22.97;100.00
59110;BME280;44895;47.438;18.978;2023-09-19T12:15:37;99837.34;;;23.06;100.00
59110;BME280;44895;47.438;18.978;2023-09-19T12:18:44;99846.22;;;23.29;100.00
59110;BME280;44895;47.438;18.978;2023-09-19T12:21:57;99855.47;;;23.55;100.00
59110;BME280;44895;47.438;18.978;2023-09-19T12:25:06;99854.13;;;23.27;100.00
59110;BME280;44895;47.438;18.978;2023-09-19T12:28:11;99857.47;;;23.03;100.00
59110;BME280;44895;47.438;18.978;2023-09-19T12:31:16;99855.03;;;22.94;100.00
59110;BME280;44895;47.438;18.978;2023-09-19T12:34:26;99847.31;;;23.18;100.00
59110;BME280;44895;47.438;18.978;2023-09-19T12:37:30;99858.44;;;23.21;100.00
59110;BME280;44895;47.438;18.978;2023-09-19T12:40:34;99861.28;;;23.36;100.00
59110;BME280;44895;47.438;18.978;2023-09-19T12:43:42;99858.84;;;23.27;100.00
59110;BME280;44895;47.438;18.978;2023-09-19T12:46:45;99856.91;;;23.31;100.00
59110;BME280;44895;47.438;18.978;2023-09-19T12:50:15;99849.84;;;23.44;100.00
59110;BME280;44895;47.438;18.978;2023-09-19T12:53:26;99851.41;;;23.38;100.00
59110;BME280;44895;47.438;18.978;2023-09-19T12:56:39;99856.13;;;23.34;100.00
59110;BME280;44895;47.438;18.978;2023-09-19T12:59:54;99852.56;;;23.34;100.00
59110;BME280;44895;47.438;18.978;2023-09-19T13:03:25;99852.25;;;23.42;100.00
59110;BME280;44895;47.438;18.978;2023-09-19T13:06:36;99857.56;;;23.13;100.00
59110;BME280;44895;47.438;18.978;2023-09-19T13:10:03;99862.78;;;22.77;100.00
59110;BME280;44895;47.438;18.978;2023-09-19T13:13:23;99858.56;;;22.91;100.00
59110;BME280;44895;47.438;18.978;2023-09-19T13:16:31;99870.44;;;22.91;100.00
59110;BME280;44895;47.438;18.978;2023-09-19T13:19:46;99866.94;;;22.98;100.00
59110;BME280;44895;47.438;18.978;2023-09-19T13:22:57;99870.41;;;23.36;100.00
59110;BME280;44895;47.438;18.978;2023-09-19T13:26:04;99849.81;;;23.34;100.00
59110;BME280;44895;47.438;18.978;2023-09-19T13:29:09;99855.44;;;23.52;100.00
59110;BME280;44895;47.438;18.978;2023-09-19T13:32:13;99866.56;;;23.55;100.00
59110;BME280;44895;47.438;18.978;2023-09-19T13:35:17;99870.03;;;23.41;100.00
59110;BME280;44895;47.438;18.978;2023-09-19T13:38:22;99868.78;;;23.32;100.00
59110;BME280;44895;47.438;18.978;2023-09-19T13:41:26;99881.75;;;23.20;100.00
59110;BME280;44895;47.438;18.978;2023-09-19T13:44:30;99879.97;;;22.97;100.00
59110;BME280;44895;47.438;18.978;2023-09-19T13:47:33;99888.88;;;22.73;100.00
59110;BME280;44895;47.438;18.978;2023-09-19T13:50:40;99883.53;;;22.53;100.00
59110;BME280;44895;47.438;18.978;2023-09-19T13:53:47;99883.84;;;22.44;100.00
59110;BME280;44895;47.438;18.978;2023-09-19T13:56:51;99883.88;;;22.48;100.00
59110;BME280;44895;47.438;18.978;2023-09-19T13:59:55;99887.75;;;22.40;100.00
59110;BME280;44895;47.438;18.978;2023-09-19T14:03:00;99881.53;;;22.16;100.00
59110;BME280;44895;47.438;18.978;2023-09-19T14:06:06;99894.25;;;22.24;100.00
59110;BME280;44895;47.438;18.978;2023-09-19T14:09:10;99892.63;;;22.20;100.00
59110;BME280;44895;47.438;18.978;2023-09-19T14:12:16;99901.22;;;22.11;100.00
59110;BME280;44895;47.438;18.978;2023-09-19T14:15:20;99889.56;;;22.28;100.00
59110;BME280;44895;47.438;18.978;2023-09-19T14:18:36;99881.63;;;22.27;100.00
59110;BME280;44895;47.438;18.978;2023-09-19T14:21:40;99882.88;;;22.29;100.00
59110;BME280;44895;47.438;18.978;2023-09-19T14:24:44;99888.47;;;22.03;100.00
59110;BME280;44895;47.438;18.978;2023-09-19T14:27:48;99876.16;;;21.96;100.00
59110;BME280;44895;47.438;18.978;2023-09-19T14:30:52;99881.66;;;21.93;100.00
59110;BME280;44895;47.438;18.978;2023-09-19T14:33:57;99886.97;;;21.78;100.00
59110;BME280;44895;47.438;18.978;2023-09-19T14:37:03;99888.63;;;21.83;100.00
59110;BME280;44895;47.438;18.978;2023-09-19T14:40:08;99896.09;;;21.82;100.00
59110;BME280;44895;47.438;18.978;2023-09-19T14:43:12;99888.63;;;21.83;100.00
59110;BME280;44895;47.438;18.978;2023-09-19T14:46:16;99873.69;;;21.88;100.00
59110;BME280;44895;47.438;18.978;2023-09-19T14:49:21;99888.69;;;21.87;100.00
59110;BME280;44895;47.438;18.978;2023-09-19T14:52:25;99880.84;;;21.92;100.00
59110;BME280;44895;47.438;18.978;2023-09-19T14:55:31;99885.19;;;21.93;100.00
59110;BME280;44895;47.438;18.978;2023-09-19T14:58:39;99884.09;;;21.98;100.00
59110;BME280;44895;47.438;18.978;2023-09-19T15:01:45;99884.13;;;22.02;100.00
59110;BME280;44895;47.438;18.978;2023-09-19T15:04:51;99878.19;;;21.99;100.00
59110;BME280;44895;47.438;18.978;2023-09-19T15:07:56;99889.97;;;21.96;100.00
59110;BME280;44895;47.438;18.978;2023-09-19T15:11:04;99886.09;;;22.01;100.00
59110;BME280;44895;47.438;18.978;2023-09-19T15:14:09;99897.53;;;21.99;100.00
59110;BME280;44895;47.438;18.978;2023-09-19T15:17:13;99898.19;;;21.89;100.00
59110;BME280;44895;47.438;18.978;2023-09-19T15:20:19;99904.44;;;21.86;100.00
59110;BME280;44895;47.438;18.978;2023-09-19T15:23:23;99908.16;;;21.67;100.00
59110;BME280;44895;47.438;18.978;2023-09-19T15:26:28;99904.16;;;21.64;100.00
59110;BME280;44895;47.438;18.978;2023-09-19T15:29:32;99908.16;;;21.67;100.00
59110;BME280;44895;47.438;18.978;2023-09-19T15:32:37;99912.84;;;21.63;100.00
59110;BME280;44895;47.438;18.978;2023-09-19T15:35:41;99907.69;;;21.61;100.00
59110;BME280;44895;47.438;18.978;2023-09-19T15:39:05;99914.19;;;21.49;100.00
59110;BME280;44895;47.438;18.978;2023-09-19T15:42:10;99902.59;;;21.40;100.00
59110;BME280;44895;47.438;18.978;2023-09-19T15:45:15;99909.41;;;21.46;100.00
59110;BME280;44895;47.438;18.978;2023-09-19T15:48:20;99914.88;;;21.43;100.00
59110;BME280;44895;47.438;18.978;2023-09-19T15:51:26;99913.34;;;21.45;100.00
59110;BME280;44895;47.438;18.978;2023-09-19T15:54:30;99912.44;;;21.38;100.00
59110;BME280;44895;47.438;18.978;2023-09-19T15:57:37;99907.59;;;21.31;100.00
59110;BME280;44895;47.438;18.978;2023-09-19T16:00:42;99909.16;;;21.28;100.00
59110;BME280;44895;47.438;18.978;2023-09-19T16:03:48;99908.91;;;21.14;100.00
59110;BME280;44895;47.438;18.978;2023-09-19T16:06:52;99912.84;;;21.13;100.00
59110;BME280;44895;47.438;18.978;2023-09-19T16:09:56;99920.50;;;21.00;100.00
59110;BME280;44895;47.438;18.978;2023-09-19T16:13:02;99923.38;;;21.07;100.00
59110;BME280;44895;47.438;18.978;2023-09-19T16:16:08;99926.16;;;21.07;100.00
59110;BME280;44895;47.438;18.978;2023-09-19T16:19:17;99918.94;;;20.99;100.00
59110;BME280;44895;47.438;18.978;2023-09-19T16:22:22;99914.69;;;20.82;100.00
59110;BME280;44895;47.438;18.978;2023-09-19T16:25:27;99916.22;;;20.79;100.00
59110;BME280;44895;47.438;18.978;2023-09-19T16:28:32;99916.06;;;20.72;100.00
59110;BME280;44895;47.438;18.978;2023-09-19T16:31:38;99929.50;;;20.54;100.00
59110;BME280;44895;47.438;18.978;2023-09-19T16:34:42;99929.66;;;20.42;100.00
59110;BME280;44895;47.438;18.978;2023-09-19T16:37:47;99933.84;;;20.32;100.00
59110;BME280;44895;47.438;18.978;2023-09-19T16:40:56;99936.56;;;20.12;100.00
59110;BME280;44895;47.438;18.978;2023-09-19T16:44:05;99940.47;;;19.92;100.00